sensor_id;sensor_type;location;lat;lon;timestamp;P1;durP1;ratioP1;P2;durP2;ratioP2
19778;SDS011;10049;59.306;18.090;2023-04-24T00:00:24;2.17;;;1.00;;
19778;SDS011;10049;59.306;18.090;2023-04-24T00:02:53;0.93;;;0.93;;
19778;SDS011;10049;59.306;18.090;2023-04-24T00:05:22;1.90;;;1.05;;
19778;SDS011;10049;59.306;18.090;2023-04-24T00:07:50;2.05;;;1.00;;
19778;SDS011;10049;59.306;18.090;2023-04-24T00:10:18;1.60;;;1.17;;
19778;SDS011;10049;59.306;18.090;2023-04-24T00:12:46;1.67;;;1.23;;
19778;SDS011;10049;59.306;18.090;2023-04-24T00:15:13;1.98;;;1.17;;
19778;SDS011;10049;59.306;18.090;2023-04-24T00:17:41;1.98;;;1.10;;
19778;SDS011;10049;59.306;18.090;2023-04-24T00:20:11;2.60;;;1.50;;
19778;SDS011;10049;59.306;18.090;2023-04-24T00:22:40;2.38;;;1.73;;
19778;SDS011;10049;59.306;18.090;2023-04-24T00:25:08;1.88;;;1.17;;
19778;SDS011;10049;59.306;18.090;2023-04-24T00:27:36;3.40;;;1.80;;
19778;SDS011;10049;59.306;18.090;2023-04-24T00:30:04;2.08;;;1.23;;
19778;SDS011;10049;59.306;18.090;2023-04-24T00:32:32;4.80;;;1.30;;
19778;SDS011;10049;59.306;18.090;2023-04-24T00:34:59;4.65;;;1.60;;
19778;SDS011;10049;59.306;18.090;2023-04-24T00:37:28;2.15;;;1.45;;
19778;SDS011;10049;59.306;18.090;2023-04-24T00:39:56;3.33;;;1.40;;
19778;SDS011;10049;59.306;18.090;2023-04-24T00:42:25;1.80;;;1.20;;
19778;SDS011;10049;59.306;18.090;2023-04-24T00:44:52;3.08;;;1.05;;
19778;SDS011;10049;59.306;18.090;2023-04-24T00:47:20;1.50;;;1.40;;
19778;SDS011;10049;59.306;18.090;2023-04-24T00:49:48;2.22;;;1.42;;
19778;SDS011;10049;59.306;18.090;2023-04-24T00:52:16;2.28;;;1.40;;
19778;SDS011;10049;59.306;18.090;2023-04-24T00:54:45;2.28;;;1.30;;
19778;SDS011;10049;59.306;18.090;2023-04-24T00:57:13;4.20;;;1.60;;
19778;SDS011;10049;59.306;18.090;2023-04-24T00:59:41;2.40;;;1.50;;
19778;SDS011;10049;59.306;18.090;2023-04-24T01:02:09;2.20;;;1.40;;
19778;SDS011;10049;59.306;18.090;2023-04-24T01:04:37;2.17;;;1.45;;
19778;SDS011;10049;59.306;18.090;2023-04-24T01:07:05;4.18;;;1.95;;
19778;SDS011;10049;59.306;18.090;2023-04-24T01:09:35;2.55;;;1.55;;
19778;SDS011;10049;59.306;18.090;2023-04-24T01:12:05;3.70;;;1.70;;
19778;SDS011;10049;59.306;18.090;2023-04-24T01:14:32;2.08;;;1.52;;
19778;SDS011;10049;59.306;18.090;2023-04-24T01:17:00;2.95;;;1.75;;
19778;SDS011;10049;59.306;18.090;2023-04-24T01:19:27;2.88;;;1.80;;
19778;SDS011;10049;59.306;18.090;2023-04-24T01:21:56;2.42;;;1.40;;
19778;SDS011;10049;59.306;18.090;2023-04-24T01:24:27;4.00;;;1.58;;
19778;SDS011;10049;59.306;18.090;2023-04-24T01:26:54;4.43;;;1.70;;
19778;SDS011;10049;59.306;18.090;2023-04-24T01:29:22;3.80;;;1.40;;
19778;SDS011;10049;59.306;18.090;2023-04-24T01:31:50;3.67;;;1.40;;
19778;SDS011;10049;59.306;18.090;2023-04-24T01:34:17;3.47;;;1.70;;
19778;SDS011;10049;59.306;18.090;2023-04-24T01:36:45;2.50;;;1.50;;
19778;SDS011;10049;59.306;18.090;2023-04-24T01:39:13;2.10;;;1.30;;
19778;SDS011;10049;59.306;18.090;2023-04-24T01:41:43;1.85;;;1.30;;
19778;SDS011;10049;59.306;18.090;2023-04-24T01:44:10;4.38;;;1.92;;
19778;SDS011;10049;59.306;18.090;2023-04-24T01:46:38;3.00;;;1.70;;
19778;SDS011;10049;59.306;18.090;2023-04-24T01:49:06;2.92;;;1.67;;
19778;SDS011;10049;59.306;18.090;2023-04-24T01:51:34;3.15;;;1.60;;
19778;SDS011;10049;59.306;18.090;2023-04-24T01:54:01;4.32;;;2.05;;
19778;SDS011;10049;59.306;18.090;2023-04-24T01:56:29;2.72;;;1.52;;
19778;SDS011;10049;59.306;18.090;2023-04-24T01:58:58;3.85;;;2.05;;
19778;SDS011;10049;59.306;18.090;2023-04-24T02:01:26;4.50;;;1.80;;
19778;SDS011;10049;59.306;18.090;2023-04-24T02:03:54;3.22;;;1.70;;
19778;SDS011;10049;59.306;18.090;2023-04-24T02:06:22;6.50;;;2.13;;
19778;SDS011;10049;59.306;18.090;2023-04-24T02:08:49;3.88;;;2.10;;
19778;SDS011;10049;59.306;18.090;2023-04-24T02:11:17;4.65;;;1.85;;
19778;SDS011;10049;59.306;18.090;2023-04-24T02:13:45;4.55;;;2.30;;
19778;SDS011;10049;59.306;18.090;2023-04-24T02:16:14;4.07;;;1.92;;
19778;SDS011;10049;59.306;18.090;2023-04-24T02:18:41;4.50;;;2.10;;
19778;SDS011;10049;59.306;18.090;2023-04-24T02:21:09;6.00;;;2.08;;
19778;SDS011;10049;59.306;18.090;2023-04-24T02:23:36;3.45;;;2.03;;
19778;SDS011;10049;59.306;18.090;2023-04-24T02:26:04;5.35;;;2.20;;
19778;SDS011;10049;59.306;18.090;2023-04-24T02:28:32;4.60;;;2.20;;
19778;SDS011;10049;59.306;18.090;2023-04-24T02:31:00;3.38;;;1.85;;
19778;SDS011;10049;59.306;18.090;2023-04-24T02:33:32;3.30;;;1.48;;
19778;SDS011;10049;59.306;18.090;2023-04-24T02:36:00;1.50;;;0.80;;
19778;SDS011;10049;59.306;18.090;2023-04-24T02:38:28;2.58;;;0.70;;
19778;SDS011;10049;59.306;18.090;2023-04-24T02:40:55;2.92;;;0.90;;
19778;SDS011;10049;59.306;18.090;2023-04-24T02:43:23;2.63;;;1.10;;
19778;SDS011;10049;59.306;18.090;2023-04-24T02:45:50;4.63;;;1.27;;
19778;SDS011;10049;59.306;18.090;2023-04-24T02:48:18;3.45;;;1.23;;
19778;SDS011;10049;59.306;18.090;2023-04-24T02:50:48;2.50;;;1.40;;
19778;SDS011;10049;59.306;18.090;2023-04-24T02:53:15;2.75;;;1.27;;
19778;SDS011;10049;59.306;18.090;2023-04-24T02:55:43;3.70;;;1.67;;
19778;SDS011;10049;59.306;18.090;2023-04-24T02:58:11;4.63;;;1.73;;
19778;SDS011;10049;59.306;18.090;2023-04-24T03:00:39;2.28;;;1.20;;
19778;SDS011;10049;59.306;18.090;2023-04-24T03:03:06;3.30;;;1.40;;
19778;SDS011;10049;59.306;18.090;2023-04-24T03:05:34;4.28;;;1.67;;
19778;SDS011;10049;59.306;18.090;2023-04-24T03:08:03;4.78;;;1.60;;
19778;SDS011;10049;59.306;18.090;2023-04-24T03:10:31;3.70;;;1.40;;
19778;SDS011;10049;59.306;18.090;2023-04-24T03:12:58;3.38;;;1.45;;
19778;SDS011;10049;59.306;18.090;2023-04-24T03:15:26;3.55;;;1.38;;
19778;SDS011;10049;59.306;18.090;2023-04-24T03:17:56;4.43;;;1.65;;
19778;SDS011;10049;59.306;18.090;2023-04-24T03:20:24;3.53;;;1.30;;
19778;SDS011;10049;59.306;18.090;2023-04-24T03:22:52;2.30;;;1.40;;
19778;SDS011;10049;59.306;18.090;2023-04-24T03:25:21;3.92;;;1.80;;
19778;SDS011;10049;59.306;18.090;2023-04-24T03:27:49;4.90;;;1.70;;
19778;SDS011;10049;59.306;18.090;2023-04-24T03:30:17;4.22;;;1.52;;
19778;SDS011;10049;59.306;18.090;2023-04-24T03:32:45;4.53;;;1.55;;
19778;SDS011;10049;59.306;18.090;2023-04-24T03:35:14;4.55;;;1.42;;
19778;SDS011;10049;59.306;18.090;2023-04-24T03:37:42;4.93;;;1.40;;
19778;SDS011;10049;59.306;18.090;2023-04-24T03:40:12;2.78;;;1.17;;
19778;SDS011;10049;59.306;18.090;2023-04-24T03:42:42;2.70;;;1.35;;
19778;SDS011;10049;59.306;18.090;2023-04-24T03:45:09;5.30;;;1.70;;
19778;SDS011;10049;59.306;18.090;2023-04-24T03:47:37;4.10;;;1.65;;
19778;SDS011;10049;59.306;18.090;2023-04-24T03:50:05;7.05;;;2.22;;
19778;SDS011;10049;59.306;18.090;2023-04-24T03:52:33;3.45;;;1.50;;
19778;SDS011;10049;59.306;18.090;2023-04-24T03:55:01;3.25;;;1.58;;
19778;SDS011;10049;59.306;18.090;2023-04-24T03:57:29;6.18;;;2.20;;
19778;SDS011;10049;59.306;18.090;2023-04-24T03:59:58;4.20;;;1.98;;
19778;SDS011;10049;59.306;18.090;2023-04-24T04:02:34;4.88;;;2.00;;
19778;SDS011;10049;59.306;18.090;2023-04-24T04:05:01;5.28;;;1.90;;
19778;SDS011;10049;59.306;18.090;2023-04-24T04:07:29;3.83;;;1.80;;
19778;SDS011;10049;59.306;18.090;2023-04-24T04:09:56;3.78;;;1.63;;
19778;SDS011;10049;59.306;18.090;2023-04-24T04:12:24;5.97;;;1.77;;
19778;SDS011;10049;59.306;18.090;2023-04-24T04:14:51;5.22;;;2.00;;
19778;SDS011;10049;59.306;18.090;2023-04-24T04:17:26;2.38;;;1.00;;
19778;SDS011;10049;59.306;18.090;2023-04-24T04:19:55;6.80;;;1.92;;
19778;SDS011;10049;59.306;18.090;2023-04-24T04:22:24;5.80;;;2.15;;
19778;SDS011;10049;59.306;18.090;2023-04-24T04:24:53;4.35;;;1.92;;
19778;SDS011;10049;59.306;18.090;2023-04-24T04:27:20;4.88;;;2.20;;
19778;SDS011;10049;59.306;18.090;2023-04-24T04:29:50;2.92;;;1.63;;
19778;SDS011;10049;59.306;18.090;2023-04-24T04:32:20;4.00;;;1.88;;
19778;SDS011;10049;59.306;18.090;2023-04-24T04:35:03;8.90;;;2.15;;
19778;SDS011;10049;59.306;18.090;2023-04-24T04:37:31;6.05;;;2.10;;
19778;SDS011;10049;59.306;18.090;2023-04-24T04:39:59;6.55;;;2.08;;
19778;SDS011;10049;59.306;18.090;2023-04-24T04:42:31;4.32;;;1.70;;
19778;SDS011;10049;59.306;18.090;2023-04-24T04:44:59;3.42;;;1.88;;
19778;SDS011;10049;59.306;18.090;2023-04-24T04:47:27;4.50;;;1.67;;
19778;SDS011;10049;59.306;18.090;2023-04-24T04:50:00;4.30;;;2.00;;
19778;SDS011;10049;59.306;18.090;2023-04-24T04:52:32;5.15;;;1.95;;
19778;SDS011;10049;59.306;18.090;2023-04-24T04:55:00;5.45;;;2.05;;
19778;SDS011;10049;59.306;18.090;2023-04-24T04:57:28;6.47;;;1.88;;
19778;SDS011;10049;59.306;18.090;2023-04-24T04:59:57;5.07;;;2.00;;
19778;SDS011;10049;59.306;18.090;2023-04-24T05:02:25;7.43;;;2.30;;
19778;SDS011;10049;59.306;18.090;2023-04-24T05:04:56;3.70;;;1.88;;
19778;SDS011;10049;59.306;18.090;2023-04-24T05:07:24;4.65;;;1.75;;
19778;SDS011;10049;59.306;18.090;2023-04-24T05:09:54;5.63;;;1.80;;
19778;SDS011;10049;59.306;18.090;2023-04-24T05:12:24;1.92;;;1.10;;
19778;SDS011;10049;59.306;18.090;2023-04-24T05:14:58;5.63;;;1.50;;
19778;SDS011;10049;59.306;18.090;2023-04-24T05:17:26;2.85;;;1.25;;
19778;SDS011;10049;59.306;18.090;2023-04-24T05:19:56;2.05;;;1.10;;
19778;SDS011;10049;59.306;18.090;2023-04-24T05:22:24;2.22;;;1.17;;
19778;SDS011;10049;59.306;18.090;2023-04-24T05:24:54;3.58;;;1.48;;
19778;SDS011;10049;59.306;18.090;2023-04-24T05:27:27;5.32;;;1.42;;
19778;SDS011;10049;59.306;18.090;2023-04-24T05:29:56;8.05;;;1.70;;
19778;SDS011;10049;59.306;18.090;2023-04-24T05:32:25;2.90;;;1.35;;
19778;SDS011;10049;59.306;18.090;2023-04-24T05:34:56;3.72;;;1.85;;
19778;SDS011;10049;59.306;18.090;2023-04-24T05:37:24;4.30;;;1.30;;
19778;SDS011;10049;59.306;18.090;2023-04-24T05:39:56;1.98;;;1.05;;
19778;SDS011;10049;59.306;18.090;2023-04-24T05:42:23;1.52;;;0.85;;
19778;SDS011;10049;59.306;18.090;2023-04-24T05:44:51;2.08;;;0.52;;
19778;SDS011;10049;59.306;18.090;2023-04-24T05:47:20;4.25;;;1.30;;
19778;SDS011;10049;59.306;18.090;2023-04-24T05:49:48;6.38;;;1.63;;
19778;SDS011;10049;59.306;18.090;2023-04-24T05:52:15;5.30;;;1.95;;
19778;SDS011;10049;59.306;18.090;2023-04-24T05:54:43;2.97;;;1.33;;
19778;SDS011;10049;59.306;18.090;2023-04-24T05:57:12;1.85;;;1.10;;
19778;SDS011;10049;59.306;18.090;2023-04-24T05:59:42;1.98;;;1.05;;
19778;SDS011;10049;59.306;18.090;2023-04-24T06:02:09;2.05;;;0.82;;
19778;SDS011;10049;59.306;18.090;2023-04-24T06:04:37;0.73;;;0.70;;
19778;SDS011;10049;59.306;18.090;2023-04-24T06:07:06;3.25;;;1.08;;
19778;SDS011;10049;59.306;18.090;2023-04-24T06:09:34;1.27;;;0.90;;
19778;SDS011;10049;59.306;18.090;2023-04-24T06:12:01;3.85;;;1.33;;
19778;SDS011;10049;59.306;18.090;2023-04-24T06:14:34;6.00;;;1.40;;
19778;SDS011;10049;59.306;18.090;2023-04-24T06:17:01;4.43;;;1.30;;
19778;SDS011;10049;59.306;18.090;2023-04-24T06:19:29;1.55;;;1.02;;
19778;SDS011;10049;59.306;18.090;2023-04-24T06:21:57;2.53;;;1.20;;
19778;SDS011;10049;59.306;18.090;2023-04-24T06:24:27;3.58;;;1.15;;
19778;SDS011;10049;59.306;18.090;2023-04-24T06:26:54;3.80;;;1.20;;
19778;SDS011;10049;59.306;18.090;2023-04-24T06:29:24;3.47;;;1.42;;
19778;SDS011;10049;59.306;18.090;2023-04-24T06:31:53;1.95;;;0.68;;
19778;SDS011;10049;59.306;18.090;2023-04-24T06:34:20;2.75;;;1.00;;
19778;SDS011;10049;59.306;18.090;2023-04-24T06:36:49;0.55;;;0.55;;
19778;SDS011;10049;59.306;18.090;2023-04-24T06:39:17;2.35;;;0.93;;
19778;SDS011;10049;59.306;18.090;2023-04-24T06:41:44;1.80;;;0.95;;
19778;SDS011;10049;59.306;18.090;2023-04-24T06:44:12;2.25;;;0.50;;
19778;SDS011;10049;59.306;18.090;2023-04-24T06:46:40;0.25;;;0.25;;
19778;SDS011;10049;59.306;18.090;2023-04-24T06:49:09;2.25;;;0.82;;
19778;SDS011;10049;59.306;18.090;2023-04-24T06:51:41;2.53;;;0.90;;
19778;SDS011;10049;59.306;18.090;2023-04-24T06:54:09;2.58;;;0.90;;
19778;SDS011;10049;59.306;18.090;2023-04-24T06:56:37;1.17;;;0.73;;
19778;SDS011;10049;59.306;18.090;2023-04-24T06:59:04;1.63;;;1.10;;
19778;SDS011;10049;59.306;18.090;2023-04-24T07:01:32;1.80;;;1.00;;
19778;SDS011;10049;59.306;18.090;2023-04-24T07:04:00;4.05;;;1.30;;
19778;SDS011;10049;59.306;18.090;2023-04-24T07:06:30;0.85;;;0.73;;
19778;SDS011;10049;59.306;18.090;2023-04-24T07:08:57;1.60;;;1.05;;
19778;SDS011;10049;59.306;18.090;2023-04-24T07:11:27;2.05;;;1.00;;
19778;SDS011;10049;59.306;18.090;2023-04-24T07:13:56;0.85;;;0.50;;
19778;SDS011;10049;59.306;18.090;2023-04-24T07:16:25;1.95;;;0.98;;
19778;SDS011;10049;59.306;18.090;2023-04-24T07:18:53;1.77;;;0.95;;
19778;SDS011;10049;59.306;18.090;2023-04-24T07:21:23;0.80;;;0.40;;
19778;SDS011;10049;59.306;18.090;2023-04-24T07:23:55;1.77;;;0.73;;
19778;SDS011;10049;59.306;18.090;2023-04-24T07:26:22;1.05;;;0.85;;
19778;SDS011;10049;59.306;18.090;2023-04-24T07:28:53;0.45;;;0.30;;
19778;SDS011;10049;59.306;18.090;2023-04-24T07:31:20;0.38;;;0.30;;
19778;SDS011;10049;59.306;18.090;2023-04-24T07:33:48;0.40;;;0.40;;
19778;SDS011;10049;59.306;18.090;2023-04-24T07:36:16;0.60;;;0.52;;
19778;SDS011;10049;59.306;18.090;2023-04-24T07:38:44;0.85;;;0.60;;
19778;SDS011;10049;59.306;18.090;2023-04-24T07:41:14;1.35;;;0.40;;
19778;SDS011;10049;59.306;18.090;2023-04-24T07:43:42;0.85;;;0.60;;
19778;SDS011;10049;59.306;18.090;2023-04-24T07:46:11;1.17;;;0.73;;
19778;SDS011;10049;59.306;18.090;2023-04-24T07:48:39;1.05;;;0.70;;
19778;SDS011;10049;59.306;18.090;2023-04-24T07:51:07;1.08;;;0.60;;
19778;SDS011;10049;59.306;18.090;2023-04-24T07:53:36;1.42;;;0.65;;
19778;SDS011;10049;59.306;18.090;2023-04-24T07:56:04;0.80;;;0.63;;
19778;SDS011;10049;59.306;18.090;2023-04-24T07:58:36;1.20;;;0.75;;
19778;SDS011;10049;59.306;18.090;2023-04-24T08:01:06;1.35;;;0.70;;
19778;SDS011;10049;59.306;18.090;2023-04-24T08:03:34;1.30;;;0.63;;
19778;SDS011;10049;59.306;18.090;2023-04-24T08:06:02;0.93;;;0.70;;
19778;SDS011;10049;59.306;18.090;2023-04-24T08:08:30;1.15;;;0.63;;
19778;SDS011;10049;59.306;18.090;2023-04-24T08:10:58;0.45;;;0.43;;
19778;SDS011;10049;59.306;18.090;2023-04-24T08:13:25;0.85;;;0.80;;
19778;SDS011;10049;59.306;18.090;2023-04-24T08:15:54;0.93;;;0.80;;
19778;SDS011;10049;59.306;18.090;2023-04-24T08:18:23;1.20;;;0.85;;
19778;SDS011;10049;59.306;18.090;2023-04-24T08:20:51;1.30;;;0.85;;
19778;SDS011;10049;59.306;18.090;2023-04-24T08:23:19;0.60;;;0.50;;
19778;SDS011;10049;59.306;18.090;2023-04-24T08:25:48;0.80;;;0.80;;
19778;SDS011;10049;59.306;18.090;2023-04-24T08:28:16;2.20;;;1.10;;
19778;SDS011;10049;59.306;18.090;2023-04-24T08:30:45;0.98;;;0.63;;
19778;SDS011;10049;59.306;18.090;2023-04-24T08:33:15;0.95;;;0.60;;
19778;SDS011;10049;59.306;18.090;2023-04-24T08:35:43;1.73;;;0.75;;
19778;SDS011;10049;59.306;18.090;2023-04-24T08:38:10;0.50;;;0.50;;
19778;SDS011;10049;59.306;18.090;2023-04-24T08:40:39;0.75;;;0.50;;
19778;SDS011;10049;59.306;18.090;2023-04-24T08:43:07;0.55;;;0.50;;
19778;SDS011;10049;59.306;18.090;2023-04-24T08:45:35;0.63;;;0.47;;
19778;SDS011;10049;59.306;18.090;2023-04-24T08:48:03;0.47;;;0.47;;
19778;SDS011;10049;59.306;18.090;2023-04-24T08:50:34;2.05;;;0.80;;
19778;SDS011;10049;59.306;18.090;2023-04-24T08:53:03;0.65;;;0.65;;
19778;SDS011;10049;59.306;18.090;2023-04-24T08:55:32;1.40;;;0.80;;
19778;SDS011;10049;59.306;18.090;2023-04-24T08:58:00;1.08;;;0.75;;
19778;SDS011;10049;59.306;18.090;2023-04-24T09:00:28;0.40;;;0.40;;
19778;SDS011;10049;59.306;18.090;2023-04-24T09:02:58;1.38;;;0.65;;
19778;SDS011;10049;59.306;18.090;2023-04-24T09:05:26;0.70;;;0.50;;
19778;SDS011;10049;59.306;18.090;2023-04-24T09:07:56;0.75;;;0.55;;
19778;SDS011;10049;59.306;18.090;2023-04-24T09:10:26;0.80;;;0.50;;
19778;SDS011;10049;59.306;18.090;2023-04-24T09:12:55;0.30;;;0.30;;
19778;SDS011;10049;59.306;18.090;2023-04-24T09:15:24;0.50;;;0.50;;
19778;SDS011;10049;59.306;18.090;2023-04-24T09:17:52;0.43;;;0.40;;
19778;SDS011;10049;59.306;18.090;2023-04-24T09:20:20;0.40;;;0.40;;
19778;SDS011;10049;59.306;18.090;2023-04-24T09:22:47;1.15;;;0.55;;
19778;SDS011;10049;59.306;18.090;2023-04-24T09:25:17;0.50;;;0.50;;
19778;SDS011;10049;59.306;18.090;2023-04-24T09:27:46;0.93;;;0.73;;
19778;SDS011;10049;59.306;18.090;2023-04-24T09:30:14;1.38;;;0.60;;
19778;SDS011;10049;59.306;18.090;2023-04-24T09:32:48;0.40;;;0.40;;
19778;SDS011;10049;59.306;18.090;2023-04-24T09:35:17;0.70;;;0.63;;
19778;SDS011;10049;59.306;18.090;2023-04-24T09:37:46;0.70;;;0.70;;
19778;SDS011;10049;59.306;18.090;2023-04-24T09:40:21;0.40;;;0.40;;
19778;SDS011;10049;59.306;18.090;2023-04-24T09:42:51;0.97;;;0.83;;
19778;SDS011;10049;59.306;18.090;2023-04-24T09:45:20;0.40;;;0.30;;
19778;SDS011;10049;59.306;18.090;2023-04-24T09:47:51;0.43;;;0.43;;
19778;SDS011;10049;59.306;18.090;2023-04-24T09:50:22;0.60;;;0.50;;
19778;SDS011;10049;59.306;18.090;2023-04-24T09:52:56;1.60;;;0.80;;
19778;SDS011;10049;59.306;18.090;2023-04-24T09:55:26;0.63;;;0.40;;
19778;SDS011;10049;59.306;18.090;2023-04-24T09:57:54;0.67;;;0.50;;
19778;SDS011;10049;59.306;18.090;2023-04-24T10:00:25;0.73;;;0.70;;
19778;SDS011;10049;59.306;18.090;2023-04-24T10:02:57;0.40;;;0.40;;
19778;SDS011;10049;59.306;18.090;2023-04-24T10:05:31;0.57;;;0.50;;
19778;SDS011;10049;59.306;18.090;2023-04-24T10:08:02;0.77;;;0.50;;
19778;SDS011;10049;59.306;18.090;2023-04-24T10:10:34;2.03;;;1.00;;
19778;SDS011;10049;59.306;18.090;2023-04-24T10:13:03;0.65;;;0.43;;
19778;SDS011;10049;59.306;18.090;2023-04-24T10:15:32;0.50;;;0.50;;
19778;SDS011;10049;59.306;18.090;2023-04-24T10:18:04;1.13;;;0.70;;
19778;SDS011;10049;59.306;18.090;2023-04-24T10:20:34;1.02;;;0.73;;
19778;SDS011;10049;59.306;18.090;2023-04-24T10:23:02;0.30;;;0.30;;
19778;SDS011;10049;59.306;18.090;2023-04-24T10:25:41;0.55;;;0.40;;
19778;SDS011;10049;59.306;18.090;2023-04-24T10:28:12;1.10;;;0.50;;
19778;SDS011;10049;59.306;18.090;2023-04-24T10:30:43;1.00;;;0.50;;
19778;SDS011;10049;59.306;18.090;2023-04-24T10:33:12;0.90;;;0.70;;
19778;SDS011;10049;59.306;18.090;2023-04-24T10:35:42;1.20;;;0.80;;
19778;SDS011;10049;59.306;18.090;2023-04-24T10:38:13;0.70;;;0.47;;
19778;SDS011;10049;59.306;18.090;2023-04-24T10:40:43;2.42;;;1.15;;
19778;SDS011;10049;59.306;18.090;2023-04-24T10:43:13;1.55;;;0.80;;
19778;SDS011;10049;59.306;18.090;2023-04-24T10:48:36;1.10;;;1.00;;
19778;SDS011;10049;59.306;18.090;2023-04-24T10:51:11;0.60;;;0.60;;
19778;SDS011;10049;59.306;18.090;2023-04-24T10:53:44;0.80;;;0.80;;
19778;SDS011;10049;59.306;18.090;2023-04-24T10:56:17;1.08;;;0.80;;
19778;SDS011;10049;59.306;18.090;2023-04-24T10:58:55;1.30;;;0.88;;
19778;SDS011;10049;59.306;18.090;2023-04-24T11:01:23;0.65;;;0.60;;
19778;SDS011;10049;59.306;18.090;2023-04-24T11:03:54;0.95;;;0.70;;
19778;SDS011;10049;59.306;18.090;2023-04-24T11:06:30;1.25;;;0.88;;
19778;SDS011;10049;59.306;18.090;2023-04-24T11:09:04;1.10;;;0.82;;
19778;SDS011;10049;59.306;18.090;2023-04-24T11:11:34;3.92;;;0.75;;
19778;SDS011;10049;59.306;18.090;2023-04-24T11:14:04;4.22;;;0.98;;
19778;SDS011;10049;59.306;18.090;2023-04-24T11:16:33;0.85;;;0.70;;
19778;SDS011;10049;59.306;18.090;2023-04-24T11:19:07;0.98;;;0.80;;
19778;SDS011;10049;59.306;18.090;2023-04-24T11:21:40;0.50;;;0.50;;
19778;SDS011;10049;59.306;18.090;2023-04-24T11:24:22;1.08;;;0.98;;
19778;SDS011;10049;59.306;18.090;2023-04-24T11:26:52;1.20;;;0.90;;
19778;SDS011;10049;59.306;18.090;2023-04-24T11:29:22;1.20;;;0.80;;
19778;SDS011;10049;59.306;18.090;2023-04-24T11:31:52;1.60;;;0.95;;
19778;SDS011;10049;59.306;18.090;2023-04-24T11:34:22;1.55;;;0.95;;
19778;SDS011;10049;59.306;18.090;2023-04-24T11:36:49;1.65;;;0.85;;
19778;SDS011;10049;59.306;18.090;2023-04-24T11:39:17;1.38;;;0.90;;
19778;SDS011;10049;59.306;18.090;2023-04-24T11:41:47;1.83;;;1.30;;
19778;SDS011;10049;59.306;18.090;2023-04-24T11:44:20;1.60;;;1.08;;
19778;SDS011;10049;59.306;18.090;2023-04-24T11:46:50;2.40;;;1.38;;
19778;SDS011;10049;59.306;18.090;2023-04-24T11:49:17;1.25;;;1.15;;
19778;SDS011;10049;59.306;18.090;2023-04-24T11:51:45;2.40;;;1.38;;
19778;SDS011;10049;59.306;18.090;2023-04-24T11:54:15;1.98;;;1.23;;
19778;SDS011;10049;59.306;18.090;2023-04-24T11:56:44;2.53;;;1.20;;
19778;SDS011;10049;59.306;18.090;2023-04-24T11:59:13;4.90;;;1.25;;
19778;SDS011;10049;59.306;18.090;2023-04-24T12:01:45;3.80;;;1.00;;
19778;SDS011;10049;59.306;18.090;2023-04-24T12:04:13;0.95;;;0.90;;
19778;SDS011;10049;59.306;18.090;2023-04-24T12:07:05;2.60;;;1.10;;
19778;SDS011;10049;59.306;18.090;2023-04-24T12:09:43;1.17;;;0.80;;
19778;SDS011;10049;59.306;18.090;2023-04-24T12:12:11;1.20;;;1.10;;
19778;SDS011;10049;59.306;18.090;2023-04-24T12:14:48;1.70;;;1.10;;
19778;SDS011;10049;59.306;18.090;2023-04-24T12:17:24;2.30;;;1.48;;
19778;SDS011;10049;59.306;18.090;2023-04-24T12:19:56;2.50;;;1.40;;
19778;SDS011;10049;59.306;18.090;2023-04-24T12:22:24;1.63;;;1.10;;
19778;SDS011;10049;59.306;18.090;2023-04-24T12:24:56;1.40;;;1.20;;
19778;SDS011;10049;59.306;18.090;2023-04-24T12:27:32;2.33;;;1.50;;
19778;SDS011;10049;59.306;18.090;2023-04-24T12:30:02;3.72;;;1.48;;
19778;SDS011;10049;59.306;18.090;2023-04-24T12:32:33;2.15;;;1.40;;
19778;SDS011;10049;59.306;18.090;2023-04-24T12:35:00;2.10;;;1.20;;
19778;SDS011;10049;59.306;18.090;2023-04-24T12:37:32;2.00;;;1.20;;
19778;SDS011;10049;59.306;18.090;2023-04-24T12:40:02;4.30;;;0.95;;
19778;SDS011;10049;59.306;18.090;2023-04-24T12:42:31;6.45;;;1.20;;
19778;SDS011;10049;59.306;18.090;2023-04-24T12:45:01;1.77;;;1.10;;
19778;SDS011;10049;59.306;18.090;2023-04-24T12:47:39;1.00;;;0.85;;
19778;SDS011;10049;59.306;18.090;2023-04-24T12:50:09;2.25;;;1.13;;
19778;SDS011;10049;59.306;18.090;2023-04-24T12:52:37;1.48;;;0.98;;
19778;SDS011;10049;59.306;18.090;2023-04-24T12:55:05;5.60;;;1.33;;
19778;SDS011;10049;59.306;18.090;2023-04-24T12:57:36;5.70;;;1.10;;
19778;SDS011;10049;59.306;18.090;2023-04-24T13:00:12;1.52;;;1.05;;
19778;SDS011;10049;59.306;18.090;2023-04-24T13:02:48;1.42;;;1.08;;
19778;SDS011;10049;59.306;18.090;2023-04-24T13:05:17;1.23;;;0.80;;
19778;SDS011;10049;59.306;18.090;2023-04-24T13:07:53;3.17;;;1.02;;
19778;SDS011;10049;59.306;18.090;2023-04-24T13:10:21;2.47;;;1.10;;
19778;SDS011;10049;59.306;18.090;2023-04-24T13:12:59;2.55;;;1.30;;
19778;SDS011;10049;59.306;18.090;2023-04-24T13:15:26;2.60;;;1.17;;
19778;SDS011;10049;59.306;18.090;2023-04-24T13:17:56;1.48;;;0.93;;
19778;SDS011;10049;59.306;18.090;2023-04-24T13:20:23;1.73;;;1.10;;
19778;SDS011;10049;59.306;18.090;2023-04-24T13:22:54;1.52;;;1.10;;
19778;SDS011;10049;59.306;18.090;2023-04-24T13:25:22;1.58;;;0.93;;
19778;SDS011;10049;59.306;18.090;2023-04-24T13:27:56;2.08;;;1.00;;
19778;SDS011;10049;59.306;18.090;2023-04-24T13:30:24;3.28;;;1.25;;
19778;SDS011;10049;59.306;18.090;2023-04-24T13:32:52;1.25;;;1.08;;
19778;SDS011;10049;59.306;18.090;2023-04-24T13:35:23;1.23;;;0.90;;
19778;SDS011;10049;59.306;18.090;2023-04-24T13:37:53;1.67;;;1.10;;
19778;SDS011;10049;59.306;18.090;2023-04-24T13:40:25;1.67;;;1.02;;
19778;SDS011;10049;59.306;18.090;2023-04-24T13:42:53;1.55;;;1.00;;
19778;SDS011;10049;59.306;18.090;2023-04-24T13:45:21;1.52;;;1.10;;
19778;SDS011;10049;59.306;18.090;2023-04-24T13:48:03;1.20;;;0.90;;
19778;SDS011;10049;59.306;18.090;2023-04-24T13:50:35;0.98;;;0.60;;
19778;SDS011;10049;59.306;18.090;2023-04-24T13:53:03;2.20;;;1.02;;
19778;SDS011;10049;59.306;18.090;2023-04-24T13:55:34;1.00;;;0.85;;
19778;SDS011;10049;59.306;18.090;2023-04-24T13:58:02;1.08;;;0.90;;
19778;SDS011;10049;59.306;18.090;2023-04-24T14:00:30;2.05;;;1.10;;
19778;SDS011;10049;59.306;18.090;2023-04-24T14:02:59;1.63;;;1.20;;
19778;SDS011;10049;59.306;18.090;2023-04-24T14:05:34;1.30;;;1.20;;
19778;SDS011;10049;59.306;18.090;2023-04-24T14:08:02;2.47;;;1.05;;
19778;SDS011;10049;59.306;18.090;2023-04-24T14:10:31;1.48;;;1.05;;
19778;SDS011;10049;59.306;18.090;2023-04-24T14:13:01;2.38;;;1.00;;
19778;SDS011;10049;59.306;18.090;2023-04-24T14:15:45;0.70;;;0.70;;
19778;SDS011;10049;59.306;18.090;2023-04-24T14:18:14;1.33;;;0.70;;
19778;SDS011;10049;59.306;18.090;2023-04-24T14:23:58;1.00;;;0.90;;
19778;SDS011;10049;59.306;18.090;2023-04-24T14:26:28;2.05;;;1.23;;
19778;SDS011;10049;59.306;18.090;2023-04-24T14:29:11;1.55;;;1.02;;
19778;SDS011;10049;59.306;18.090;2023-04-24T14:31:52;2.80;;;1.00;;
19778;SDS011;10049;59.306;18.090;2023-04-24T14:34:21;1.17;;;0.53;;
19778;SDS011;10049;59.306;18.090;2023-04-24T14:36:57;1.93;;;0.80;;
19778;SDS011;10049;59.306;18.090;2023-04-24T14:39:47;0.53;;;0.53;;
19778;SDS011;10049;59.306;18.090;2023-04-24T14:42:15;0.93;;;0.70;;
19778;SDS011;10049;59.306;18.090;2023-04-24T14:44:45;0.93;;;0.70;;
19778;SDS011;10049;59.306;18.090;2023-04-24T14:47:14;2.50;;;0.77;;
19778;SDS011;10049;59.306;18.090;2023-04-24T14:49:43;0.47;;;0.38;;
19778;SDS011;10049;59.306;18.090;2023-04-24T14:52:21;2.65;;;0.70;;